createdAt,value
2022-12-23T00:01:27.011Z,14.00
2022-12-23T00:03:59.307Z,13.67
2022-12-23T00:06:28.469Z,13.37
2022-12-23T00:08:58.849Z,12.77
2022-12-23T00:11:29.023Z,12.30
2022-12-23T00:14:21.136Z,10.23
2022-12-23T00:16:51.834Z,12.93
2022-12-23T00:19:20.300Z,13.83
2022-12-23T00:21:49.164Z,13.23
2022-12-23T00:24:17.464Z,12.93
2022-12-23T00:26:45.840Z,11.93
2022-12-23T00:29:14.170Z,11.30
2022-12-23T00:31:42.530Z,10.57
2022-12-23T00:34:13.127Z,11.00
2022-12-23T00:36:41.601Z,10.73
2022-12-23T00:39:30.993Z,10.07
2022-12-23T00:42:16.481Z,10.33
2022-12-23T00:44:44.858Z,9.60
2022-12-23T00:47:33.173Z,9.60
2022-12-23T00:50:01.896Z,8.70
2022-12-23T00:52:30.159Z,8.80
2022-12-23T00:54:58.786Z,8.93
2022-12-23T00:57:27.082Z,9.07
2022-12-23T00:59:55.417Z,9.50
2022-12-23T01:02:41.279Z,9.40
2022-12-23T01:05:30.032Z,10.23
2022-12-23T01:07:58.303Z,11.93
2022-12-23T01:10:26.569Z,12.00
2022-12-23T01:12:54.932Z,13.07
2022-12-23T01:15:23.210Z,13.50
2022-12-23T01:17:51.697Z,13.93
2022-12-23T01:20:21.376Z,13.70
2022-12-23T01:22:49.769Z,13.30
2022-12-23T01:25:18.600Z,13.00
2022-12-23T01:27:46.901Z,12.40
2022-12-23T01:30:15.617Z,11.80
2022-12-23T01:32:43.983Z,11.73
2022-12-23T01:35:12.367Z,10.47
2022-12-23T01:37:42.105Z,10.73
2022-12-23T01:40:11.305Z,11.30
2022-12-23T01:42:44.068Z,10.47
2022-12-23T01:45:18.500Z,12.60
2022-12-23T01:47:51.470Z,15.37
2022-12-23T01:50:24.703Z,17.03
2022-12-23T01:53:07.820Z,18.13
2022-12-23T01:55:40.306Z,20.80
2022-12-23T01:58:13.151Z,20.83
2022-12-23T02:01:00.378Z,22.43
2022-12-23T02:03:44.509Z,21.60
2022-12-23T02:06:35.727Z,21.33
2022-12-23T02:09:18.629Z,21.80
2022-12-23T02:12:22.588Z,21.50
2022-12-23T02:15:45.316Z,19.77
2022-12-23T02:18:56.951Z,21.50
2022-12-23T02:21:58.598Z,20.13
2022-12-23T02:24:59.133Z,20.27
2022-12-23T02:27:32.282Z,19.93
2022-12-23T02:30:28.632Z,19.90
2022-12-23T02:33:20.171Z,20.00
2022-12-23T02:35:57.325Z,20.33
2022-12-23T02:38:30.229Z,20.73
2022-12-23T02:41:09.782Z,20.43
2022-12-23T02:43:45.481Z,20.13
2022-12-23T02:46:22.482Z,20.00
2022-12-23T02:48:58.301Z,20.07
2022-12-23T02:51:31.437Z,19.57
2022-12-23T02:54:04.379Z,19.17
2022-12-23T02:56:36.023Z,19.10
2022-12-23T02:59:09.997Z,17.33
2022-12-23T03:01:41.274Z,16.63
2022-12-23T03:04:10.371Z,16.23
2022-12-23T03:06:42.653Z,15.40
2022-12-23T03:09:13.191Z,16.10
2022-12-23T03:11:55.429Z,16.00
2022-12-23T03:14:55.139Z,15.60
2022-12-23T03:17:39.995Z,15.33
2022-12-23T03:20:22.462Z,15.03
2022-12-23T03:22:58.921Z,14.67
2022-12-23T03:25:32.950Z,14.63
2022-12-23T03:28:06.205Z,14.73
2022-12-23T03:30:36.643Z,14.93
2022-12-23T03:33:12.572Z,13.53
2022-12-23T03:35:46.851Z,13.60
2022-12-23T03:38:18.069Z,11.23
2022-12-23T03:40:53.545Z,11.87
2022-12-23T03:43:26.016Z,10.87
2022-12-23T03:45:59.191Z,10.87
2022-12-23T03:48:33.764Z,10.53
2022-12-23T03:51:05.878Z,10.67
2022-12-23T03:53:39.716Z,10.40
2022-12-23T03:56:11.127Z,10.80
2022-12-23T03:58:44.272Z,10.27
2022-12-23T04:01:20.325Z,10.23
2022-12-23T04:03:57.903Z,9.77
2022-12-23T04:06:30.584Z,8.80
2022-12-23T04:08:59.554Z,8.57
2022-12-23T04:11:27.857Z,8.30
2022-12-23T04:13:56.811Z,7.57
2022-12-23T04:16:25.216Z,7.40
2022-12-23T04:18:54.941Z,7.10
2022-12-23T04:21:23.261Z,6.80
2022-12-23T04:23:51.583Z,6.63
2022-12-23T04:26:19.880Z,7.10
2022-12-23T04:28:48.204Z,6.60
2022-12-23T04:31:16.565Z,6.43
2022-12-23T04:33:44.984Z,7.03
2022-12-23T04:36:14.666Z,6.60
2022-12-23T04:38:42.938Z,6.30
2022-12-23T04:41:11.255Z,6.70
2022-12-23T04:43:39.515Z,6.53
2022-12-23T04:46:07.838Z,6.13
2022-12-23T04:48:37.308Z,6.03
2022-12-23T04:51:06.028Z,6.20
2022-12-23T04:53:37.494Z,6.40
2022-12-23T04:56:06.158Z,6.30
2022-12-23T04:58:34.551Z,6.60
2022-12-23T05:01:04.590Z,7.23
2022-12-23T05:03:33.288Z,6.70
2022-12-23T05:06:01.951Z,7.10
2022-12-23T05:08:30.449Z,6.87
2022-12-23T05:11:00.288Z,7.13
2022-12-23T05:13:28.762Z,7.17
2022-12-23T05:15:57.405Z,8.13
2022-12-23T05:18:25.867Z,7.93
2022-12-23T05:20:54.249Z,8.13
2022-12-23T05:23:22.581Z,7.87
2022-12-23T05:25:53.200Z,8.50
2022-12-23T05:28:23.570Z,8.23
2022-12-23T05:30:58.558Z,9.80
2022-12-23T05:33:27.024Z,11.07
2022-12-23T05:35:55.473Z,11.27
2022-12-23T05:38:24.022Z,13.30
2022-12-23T05:40:52.846Z,12.93
2022-12-23T05:43:22.749Z,13.67
2022-12-23T05:45:51.531Z,11.13
2022-12-23T05:48:20.670Z,10.23
2022-12-23T05:50:51.152Z,9.73
2022-12-23T05:53:19.613Z,10.10
2022-12-23T05:55:48.189Z,9.33
2022-12-23T05:58:16.763Z,9.57
2022-12-23T06:00:46.531Z,10.07
2022-12-23T06:03:15.059Z,9.73
2022-12-23T06:05:44.164Z,10.10
2022-12-23T06:08:12.459Z,10.97
2022-12-23T06:10:40.880Z,11.20
2022-12-23T06:13:09.459Z,11.70
2022-12-23T06:15:37.806Z,11.90
2022-12-23T06:18:07.756Z,12.30
2022-12-23T06:20:36.161Z,12.73
2022-12-23T06:23:04.473Z,12.47
2022-12-23T06:25:32.808Z,12.70
2022-12-23T06:28:01.126Z,13.53
2022-12-23T06:30:29.491Z,13.90
2022-12-23T06:32:57.895Z,15.00
2022-12-23T06:35:27.667Z,15.13
2022-12-23T06:37:56.150Z,16.80
2022-12-23T06:40:24.436Z,16.80
2022-12-23T06:42:52.698Z,16.83
2022-12-23T06:45:21.188Z,16.57
2022-12-23T06:47:49.502Z,15.77
2022-12-23T06:50:18.317Z,16.00
2022-12-23T06:52:49.096Z,16.63
2022-12-23T06:55:18.243Z,17.77
2022-12-23T06:57:46.635Z,18.10
2022-12-23T07:00:16.569Z,17.33
2022-12-23T07:02:44.958Z,17.33
2022-12-23T07:05:13.412Z,16.37
2022-12-23T07:07:41.740Z,16.13
2022-12-23T07:10:12.021Z,15.67
2022-12-23T07:12:43.578Z,14.90
2022-12-23T07:15:15.926Z,14.10
2022-12-23T07:17:44.309Z,13.40
2022-12-23T07:20:14.551Z,13.00
2022-12-23T07:22:42.988Z,12.20
2022-12-23T07:25:13.770Z,12.77
2022-12-23T07:27:42.147Z,12.60
2022-12-23T07:30:11.435Z,13.33
2022-12-23T07:32:39.733Z,11.27
2022-12-23T07:35:08.645Z,11.23
2022-12-23T07:37:36.930Z,10.57
2022-12-23T07:40:08.732Z,10.90
2022-12-23T07:42:46.966Z,10.10
2022-12-23T07:45:15.658Z,10.40
2022-12-23T07:47:44.297Z,9.80
2022-12-23T07:50:13.469Z,9.77
2022-12-23T07:52:41.776Z,10.43
2022-12-23T07:55:10.633Z,10.53
2022-12-23T07:57:40.870Z,13.07
2022-12-23T08:00:12.172Z,15.60
2022-12-23T08:02:40.582Z,16.47
2022-12-23T08:05:09.810Z,16.37
2022-12-23T08:07:38.590Z,16.13
2022-12-23T08:10:08.688Z,16.73
2022-12-23T08:12:36.957Z,16.47
2022-12-23T08:15:08.486Z,16.37
2022-12-23T08:17:36.897Z,16.73
2022-12-23T08:20:05.816Z,17.10
2022-12-23T08:22:34.131Z,16.13
2022-12-23T08:25:02.548Z,18.27
2022-12-23T08:27:30.857Z,23.50
2022-12-23T08:29:59.210Z,23.83
2022-12-23T08:32:29.598Z,21.27
2022-12-23T08:34:58.567Z,20.80
2022-12-23T08:37:27.101Z,20.63
2022-12-23T08:39:55.510Z,20.70
2022-12-23T08:42:24.016Z,20.83
2022-12-23T08:44:52.331Z,20.83
2022-12-23T08:47:20.656Z,21.87
2022-12-23T08:49:51.095Z,22.30
2022-12-23T08:52:19.359Z,23.53
2022-12-23T08:54:47.682Z,23.27
2022-12-23T08:57:16.025Z,23.57
2022-12-23T08:59:44.294Z,22.63
2022-12-23T09:02:13.501Z,23.20
2022-12-23T09:04:41.949Z,21.83
2022-12-23T09:07:11.766Z,21.53
2022-12-23T09:09:40.218Z,21.60
2022-12-23T09:12:08.795Z,23.97
2022-12-23T09:14:37.140Z,22.07
2022-12-23T09:17:05.580Z,20.50
2022-12-23T09:19:34.101Z,20.27
2022-12-23T09:22:02.692Z,20.70
2022-12-23T09:24:32.717Z,20.00
2022-12-23T09:27:00.958Z,20.70
2022-12-23T09:29:29.209Z,20.50
2022-12-23T09:31:57.625Z,20.73
2022-12-23T09:34:26.740Z,21.23
2022-12-23T09:36:55.713Z,20.70
2022-12-23T09:39:24.408Z,20.53
2022-12-23T09:42:07.582Z,20.27
2022-12-23T09:45:00.151Z,20.60
2022-12-23T09:47:30.913Z,19.80
2022-12-23T09:50:02.412Z,22.67
2022-12-23T09:52:38.834Z,23.10
2022-12-23T09:55:12.416Z,22.17
2022-12-23T09:57:49.419Z,22.10
2022-12-23T10:00:21.277Z,22.47
2022-12-23T10:03:06.265Z,21.57
2022-12-23T10:05:43.969Z,21.20
2022-12-23T10:08:18.310Z,20.73
2022-12-23T10:10:50.859Z,21.00
2022-12-23T10:13:27.892Z,19.80
2022-12-23T10:15:59.565Z,18.40
2022-12-23T10:18:45.170Z,19.30
2022-12-23T10:21:17.830Z,19.57
2022-12-23T10:23:51.505Z,18.97
2022-12-23T10:26:25.022Z,19.50
2022-12-23T10:29:19.217Z,20.27
2022-12-23T10:32:02.917Z,19.87
2022-12-23T10:34:44.199Z,19.23
2022-12-23T10:37:18.584Z,18.10
2022-12-23T10:39:54.300Z,20.23
2022-12-23T10:42:32.486Z,19.17
2022-12-23T10:45:16.494Z,19.20
2022-12-23T10:47:56.396Z,20.70
2022-12-23T10:50:46.096Z,21.10
2022-12-23T10:53:22.698Z,20.07
2022-12-23T10:55:51.577Z,20.67
2022-12-23T10:58:20.963Z,19.87
2022-12-23T11:00:55.976Z,19.00
2022-12-23T11:03:30.239Z,19.27
2022-12-23T11:05:59.801Z,18.97
2022-12-23T11:08:31.303Z,18.30
2022-12-23T11:11:01.039Z,19.27
2022-12-23T11:13:36.939Z,20.67
2022-12-23T11:16:20.120Z,19.67
2022-12-23T11:18:57.909Z,21.77
2022-12-23T11:21:26.915Z,24.17
2022-12-23T11:24:10.306Z,27.40
2022-12-23T11:26:39.803Z,34.87
2022-12-23T11:29:12.320Z,39.37
2022-12-23T11:31:45.294Z,39.60
2022-12-23T11:34:18.402Z,34.07
2022-12-23T11:36:58.724Z,28.27
2022-12-23T11:39:33.969Z,24.97
2022-12-23T11:42:09.041Z,23.87
2022-12-23T11:44:41.442Z,22.33
2022-12-23T11:47:29.301Z,23.00
2022-12-23T11:49:58.721Z,22.87
2022-12-23T11:52:29.010Z,22.17
2022-12-23T11:54:59.703Z,22.10
2022-12-23T11:57:35.794Z,21.20
2022-12-23T12:00:08.142Z,21.60
2022-12-23T12:02:42.034Z,21.70
2022-12-23T12:05:23.021Z,22.57
2022-12-23T12:07:52.898Z,23.00
2022-12-23T12:10:26.306Z,24.07
2022-12-23T12:12:59.650Z,23.30
2022-12-23T12:15:35.228Z,23.67
2022-12-23T12:18:10.075Z,23.57
2022-12-23T12:20:42.000Z,23.97
2022-12-23T12:23:15.927Z,23.07
2022-12-23T12:25:48.138Z,23.10
2022-12-23T12:28:20.382Z,22.87
2022-12-23T12:30:53.504Z,23.07
2022-12-23T12:33:29.154Z,22.53
2022-12-23T12:36:08.566Z,23.13
2022-12-23T12:38:40.057Z,23.43
2022-12-23T12:41:15.609Z,24.80
2022-12-23T12:43:50.033Z,26.07
2022-12-23T12:46:28.044Z,28.37
2022-12-23T12:49:04.676Z,30.00
2022-12-23T12:51:41.714Z,40.77
2022-12-23T12:54:20.822Z,53.63
2022-12-23T12:56:52.361Z,80.37
2022-12-23T12:59:23.624Z,123.17
2022-12-23T13:02:17.461Z,105.23
2022-12-23T13:05:22.244Z,68.40
2022-12-23T13:08:06.719Z,50.27
2022-12-23T13:10:44.116Z,51.17
2022-12-23T13:13:26.125Z,42.87
2022-12-23T13:15:59.808Z,47.70
2022-12-23T13:18:37.034Z,54.10
2022-12-23T13:21:14.618Z,56.80
2022-12-23T13:23:49.352Z,50.30
2022-12-23T13:26:28.991Z,48.90
2022-12-23T13:29:09.534Z,47.87
2022-12-23T13:31:48.402Z,39.37
2022-12-23T13:34:31.812Z,36.07
2022-12-23T13:37:12.474Z,34.40
2022-12-23T13:39:52.560Z,31.80
2022-12-23T13:42:31.718Z,32.33
2022-12-23T13:45:03.827Z,31.53
2022-12-23T13:47:52.576Z,30.53
2022-12-23T13:50:28.692Z,29.83
2022-12-23T13:53:11.689Z,30.03
2022-12-23T13:55:57.647Z,29.83
2022-12-23T13:58:28.491Z,30.27
2022-12-23T14:01:20.989Z,31.77
2022-12-23T14:03:50.557Z,33.40
2022-12-23T14:06:38.424Z,35.97
2022-12-23T14:09:08.191Z,38.40
2022-12-23T14:11:36.630Z,43.80
2022-12-23T14:14:07.018Z,49.20
2022-12-23T14:16:48.309Z,52.97
2022-12-23T14:19:43.595Z,54.47
2022-12-23T14:22:43.088Z,58.23
2022-12-23T14:25:30.643Z,51.53
2022-12-23T14:28:06.162Z,46.50
2022-12-23T14:30:36.935Z,43.07
2022-12-23T14:33:15.578Z,40.60
2022-12-23T14:35:59.442Z,43.47
2022-12-23T14:38:33.035Z,46.90
2022-12-23T14:41:22.818Z,46.50
2022-12-23T14:43:57.308Z,47.67
2022-12-23T14:46:58.432Z,51.23
2022-12-23T14:49:42.959Z,54.50
2022-12-23T14:52:54.123Z,58.53
2022-12-23T14:55:45.880Z,49.70
2022-12-23T14:58:52.980Z,42.47
2022-12-23T15:01:31.429Z,33.87
2022-12-23T15:04:01.776Z,28.77
2022-12-23T15:06:36.815Z,27.63
2022-12-23T15:09:07.522Z,28.87
2022-12-23T15:11:37.553Z,28.47
2022-12-23T15:14:11.013Z,31.20
2022-12-23T15:16:45.179Z,30.43
2022-12-23T15:19:22.699Z,30.17
2022-12-23T15:22:00.306Z,28.77
2022-12-23T15:24:31.690Z,29.30
2022-12-23T15:29:51.149Z,31.60
2022-12-23T15:32:22.175Z,33.73
2022-12-23T15:34:51.865Z,31.83
2022-12-23T15:37:26.211Z,42.30
2022-12-23T15:40:03.354Z,49.23
2022-12-23T15:42:38.685Z,44.90
2022-12-23T15:45:31.011Z,35.53
2022-12-23T15:48:01.009Z,31.30
2022-12-23T15:50:30.307Z,28.23
2022-12-23T15:53:06.481Z,28.43
2022-12-23T15:55:36.542Z,27.57
2022-12-23T15:58:05.992Z,26.37
2022-12-23T16:00:39.793Z,26.03
2022-12-23T16:03:26.690Z,27.20
2022-12-23T16:05:55.250Z,25.43
2022-12-23T16:08:29.589Z,27.37
2022-12-23T16:11:07.647Z,27.53
2022-12-23T16:13:38.220Z,28.57
2022-12-23T16:16:21.410Z,28.07
2022-12-23T16:18:51.351Z,29.23
2022-12-23T16:21:19.735Z,30.90
2022-12-23T16:23:53.404Z,29.67
2022-12-23T16:26:22.608Z,30.10
2022-12-23T16:28:53.475Z,28.40
2022-12-23T16:31:22.417Z,28.50
2022-12-23T16:33:55.610Z,28.50
2022-12-23T16:36:34.713Z,27.37
2022-12-23T16:39:14.341Z,27.73
2022-12-23T16:41:44.200Z,26.47
2022-12-23T16:44:12.463Z,25.57
2022-12-23T16:46:43.756Z,24.60
2022-12-23T16:49:17.507Z,25.17
2022-12-23T16:51:46.072Z,24.40
2022-12-23T16:54:16.915Z,24.77
2022-12-23T16:56:46.890Z,24.37
2022-12-23T16:59:15.747Z,24.80
2022-12-23T17:01:46.392Z,24.90
2022-12-23T17:04:17.128Z,25.17
2022-12-23T17:06:46.972Z,27.03
2022-12-23T17:09:15.315Z,27.40
2022-12-23T17:11:46.457Z,29.03
2022-12-23T17:14:17.973Z,28.97
2022-12-23T17:16:46.973Z,29.43
2022-12-23T17:19:21.865Z,29.67
2022-12-23T17:21:58.169Z,30.80
2022-12-23T17:24:28.043Z,33.63
2022-12-23T17:26:57.616Z,32.60
2022-12-23T17:29:26.465Z,28.53
2022-12-23T17:31:54.980Z,29.10
2022-12-23T17:34:26.026Z,26.60
2022-12-23T17:36:55.072Z,27.00
2022-12-23T17:39:23.775Z,25.57
2022-12-23T17:41:52.748Z,26.37
2022-12-23T17:44:21.290Z,26.90
2022-12-23T17:46:49.730Z,34.60
2022-12-23T17:49:18.474Z,38.90
2022-12-23T17:51:48.289Z,44.27
2022-12-23T17:54:23.836Z,49.30
2022-12-23T17:56:52.833Z,52.53
2022-12-23T17:59:21.930Z,51.43
2022-12-23T18:01:54.849Z,50.00
2022-12-23T18:04:23.208Z,44.13
2022-12-23T18:06:52.948Z,41.13
2022-12-23T18:09:21.471Z,41.57
2022-12-23T18:11:49.845Z,44.03
2022-12-23T18:14:20.998Z,44.13
2022-12-23T18:16:49.548Z,37.83
2022-12-23T18:19:19.579Z,39.50
2022-12-23T18:21:48.285Z,39.80
2022-12-23T18:24:18.050Z,43.27
2022-12-23T18:26:47.574Z,44.33
2022-12-23T18:29:16.115Z,46.00
2022-12-23T18:31:51.485Z,44.50
2022-12-23T18:34:21.124Z,45.17
2022-12-23T18:36:51.728Z,43.93
2022-12-23T18:39:22.115Z,36.70
2022-12-23T18:41:50.536Z,37.27
2022-12-23T18:44:21.198Z,36.77
2022-12-23T18:46:50.502Z,33.73
2022-12-23T18:49:19.461Z,31.07
2022-12-23T18:51:49.007Z,30.67
2022-12-23T18:54:18.474Z,31.90
2022-12-23T18:56:49.375Z,31.07
2022-12-23T18:59:22.730Z,28.90
2022-12-23T19:01:56.269Z,25.17
2022-12-23T19:04:24.707Z,21.77
2022-12-23T19:06:53.382Z,22.20
2022-12-23T19:09:23.951Z,22.13
2022-12-23T19:11:54.893Z,22.60
2022-12-23T19:14:23.445Z,21.77
2022-12-23T19:16:52.724Z,22.13
2022-12-23T19:19:21.579Z,22.47
2022-12-23T19:21:49.966Z,21.10
2022-12-23T19:24:18.376Z,20.53
2022-12-23T19:26:46.683Z,20.20
2022-12-23T19:29:16.385Z,19.30
2022-12-23T19:31:44.730Z,22.87
2022-12-23T19:34:15.668Z,38.60
2022-12-23T19:36:44.930Z,46.17
2022-12-23T19:39:16.539Z,44.57
2022-12-23T19:41:45.692Z,40.67
2022-12-23T19:44:15.603Z,36.93
2022-12-23T19:46:44.059Z,36.23
2022-12-23T19:49:19.568Z,34.77
2022-12-23T19:51:48.942Z,36.23
2022-12-23T19:54:17.360Z,27.10
2022-12-23T19:56:46.628Z,20.00
2022-12-23T19:59:16.277Z,17.40
2022-12-23T20:01:44.824Z,16.37
2022-12-23T20:04:13.839Z,15.60
2022-12-23T20:06:43.334Z,33.97
2022-12-23T20:09:13.869Z,42.80
2022-12-23T20:11:43.679Z,31.83
2022-12-23T20:14:12.452Z,22.53
2022-12-23T20:16:43.034Z,18.67
2022-12-23T20:19:12.476Z,18.77
2022-12-23T20:21:41.040Z,17.73
2022-12-23T20:24:10.716Z,19.03
2022-12-23T20:26:39.493Z,19.53
2022-12-23T20:29:07.931Z,20.17
2022-12-23T20:31:38.440Z,19.93
2022-12-23T20:34:09.549Z,20.63
2022-12-23T20:36:38.732Z,21.17
2022-12-23T20:39:07.166Z,21.30
2022-12-23T20:41:35.808Z,20.63
2022-12-23T20:46:52.569Z,22.57
2022-12-23T20:49:22.439Z,23.30
2022-12-23T20:51:50.792Z,24.90
2022-12-23T20:54:19.081Z,25.57
2022-12-23T20:56:47.492Z,31.23
2022-12-23T20:59:15.961Z,30.67
2022-12-23T21:01:44.467Z,27.60
2022-12-23T21:04:15.978Z,26.73
2022-12-23T21:06:46.107Z,28.97
2022-12-23T21:09:16.290Z,28.27
2022-12-23T21:11:47.910Z,29.40
2022-12-23T21:14:17.199Z,27.33
2022-12-23T21:16:46.130Z,26.97
2022-12-23T21:19:17.193Z,34.47
2022-12-23T21:21:48.212Z,43.80
2022-12-23T21:24:16.667Z,46.83
2022-12-23T21:26:49.026Z,39.03
2022-12-23T21:29:22.383Z,33.03
2022-12-23T21:31:50.826Z,30.27
2022-12-23T21:34:19.329Z,28.53
2022-12-23T21:36:49.214Z,28.43
2022-12-23T21:39:17.652Z,27.60
2022-12-23T21:41:46.129Z,26.93
2022-12-23T21:44:15.129Z,26.57
2022-12-23T21:46:43.468Z,26.13
2022-12-23T21:49:12.510Z,24.03
2022-12-23T21:51:41.984Z,22.37
2022-12-23T21:54:12.945Z,22.90
2022-12-23T21:56:42.456Z,24.53
2022-12-23T21:59:14.407Z,32.93
2022-12-23T22:01:43.683Z,43.87
2022-12-23T22:04:12.951Z,42.03
2022-12-23T22:06:45.917Z,39.93
2022-12-23T22:09:17.975Z,39.20
2022-12-23T22:11:47.744Z,32.03
2022-12-23T22:14:18.157Z,28.47
2022-12-23T22:16:46.802Z,27.10
2022-12-23T22:19:15.839Z,27.67
2022-12-23T22:21:44.299Z,25.40
2022-12-23T22:24:12.856Z,26.43
2022-12-23T22:26:43.003Z,25.70
2022-12-23T22:29:13.096Z,27.23
2022-12-23T22:31:44.839Z,26.30
2022-12-23T22:34:15.416Z,31.03
2022-12-23T22:36:44.081Z,33.70
2022-12-23T22:39:20.101Z,31.60
2022-12-23T22:41:51.429Z,28.13
2022-12-23T22:44:20.531Z,29.80
2022-12-23T22:46:49.296Z,29.33
2022-12-23T22:49:18.377Z,27.20
2022-12-23T22:51:47.154Z,24.73
2022-12-23T22:54:15.646Z,24.73
2022-12-23T22:56:44.028Z,23.53
2022-12-23T22:59:21.318Z,22.47
2022-12-23T23:01:50.781Z,25.10
2022-12-23T23:04:19.560Z,26.33
2022-12-23T23:06:48.557Z,23.77
2022-12-23T23:09:20.192Z,22.00
2022-12-23T23:11:48.656Z,19.50
2022-12-23T23:14:18.785Z,18.47
2022-12-23T23:16:47.376Z,16.47
2022-12-23T23:19:17.100Z,16.60
2022-12-23T23:21:45.788Z,16.07
2022-12-23T23:24:14.374Z,16.17
2022-12-23T23:26:42.612Z,15.17
2022-12-23T23:29:10.890Z,15.50
2022-12-23T23:31:42.739Z,15.17
2022-12-23T23:34:11.949Z,15.43
2022-12-23T23:36:40.718Z,15.10
2022-12-23T23:39:09.260Z,15.00
2022-12-23T23:41:37.664Z,14.83
2022-12-23T23:44:06.385Z,15.03
2022-12-23T23:46:34.904Z,15.43
2022-12-23T23:49:04.828Z,14.93
2022-12-23T23:51:37.246Z,15.13
2022-12-23T23:54:06.117Z,15.37
2022-12-23T23:56:38.609Z,14.67
2022-12-23T23:59:08.100Z,15.67
